Time;durP1;ratioP1;P1;durP2;ratioP2;P2;SDS_P1;SDS_P2;PMS_P1;PMS_P2;Temp;Humidity;BMP_temperature;BMP_pressure;BME280_temperature;BME280_humidity;BME280_pressure;Samples;Min_cycle;Max_cycle;Signal;HPM_P1;HPM_P2
2021/11/08 00:01:14;;;;;;;19.38;6.88;;;5.40;99.90;;;;;;5073178;28;20114;-90
2021/11/08 00:04:03;;;;;;;16.83;6.45;;;5.40;99.90;;;;;;5057543;28;20098;-89
2021/11/08 00:06:54;;;;;;;19.33;7.57;;;5.40;99.90;;;;;;5085095;28;20454;-90
2021/11/08 00:09:43;;;;;;;18.67;6.97;;;5.40;99.90;;;;;;5068868;28;20025;-90
2021/11/08 00:12:38;;;;;;;15.85;6.95;;;5.40;99.90;;;;;;5085593;28;20102;-90
2021/11/08 00:15:54;;;;;;;22.90;7.35;;;5.40;99.90;;;;;;5074448;28;20033;-89
2021/11/08 00:21:50;;;;;;;11.57;6.35;;;5.50;99.90;;;;;;5071357;28;20121;-90
2021/11/08 00:24:39;;;;;;;13.70;6.70;;;5.40;99.90;;;;;;5058654;28;20041;-89
2021/11/08 00:27:27;;;;;;;23.60;7.85;;;5.40;99.90;;;;;;5062139;28;20176;-90
2021/11/08 00:30:15;;;;;;;24.23;8.27;;;5.50;99.90;;;;;;5049814;28;20041;-89
2021/11/08 00:33:04;;;;;;;20.70;8.43;;;5.50;99.90;;;;;;5052991;28;20040;-90
2021/11/08 00:36:05;;;;;;;23.27;8.27;;;5.50;99.90;;;;;;5070094;28;20041;-89
2021/11/08 00:38:59;;;;;;;18.30;7.10;;;5.60;99.90;;;;;;5071178;28;20045;-90
2021/11/08 00:41:48;;;;;;;30.23;8.57;;;5.50;99.90;;;;;;5066954;28;20370;-88
2021/11/08 00:44:35;;;;;;;22.40;9.02;;;5.60;99.90;;;;;;5073492;28;20055;-87
2021/11/08 00:47:22;;;;;;;19.65;8.48;;;5.60;99.90;;;;;;5071771;28;20147;-89
2021/11/08 00:50:11;;;;;;;23.00;8.48;;;5.50;99.90;;;;;;5072220;28;20113;-89
2021/11/08 00:53:00;;;;;;;17.10;8.05;;;5.60;99.90;;;;;;5058825;28;20099;-89
2021/11/08 00:55:48;;;;;;;23.20;8.07;;;5.60;99.90;;;;;;5086846;28;20043;-90
2021/11/08 00:58:39;;;;;;;31.38;7.80;;;5.70;99.90;;;;;;5086611;28;20048;-90
2021/11/08 01:01:27;;;;;;;24.90;8.00;;;5.70;99.90;;;;;;5072574;28;20110;-90
2021/11/08 01:04:19;;;;;;;21.10;8.43;;;5.60;99.90;;;;;;5070958;28;20088;-90
2021/11/08 01:07:10;;;;;;;;;;;5.60;99.90;;;;;;5059582;28;20075;-90
2021/11/08 01:09:58;;;;;;;19.73;8.25;;;5.60;99.90;;;;;;5057177;28;19924;-90
2021/11/08 01:12:46;;;;;;;25.20;8.48;;;5.60;99.90;;;;;;5057011;28;20072;-90
2021/11/08 01:15:37;;;;;;;21.30;8.18;;;5.60;99.90;;;;;;5067072;28;20065;-90
2021/11/08 01:18:28;;;;;;;24.75;9.13;;;5.60;99.90;;;;;;5052222;28;20419;-89
2021/11/08 01:21:15;;;;;;;19.35;8.95;;;5.60;99.90;;;;;;5058559;28;20056;-91
2021/11/08 01:24:04;;;;;;;35.17;8.80;;;5.50;99.90;;;;;;5064018;28;20077;-90
2021/11/08 01:26:53;;;;;;;18.90;8.07;;;5.50;99.90;;;;;;5041345;28;20076;-89
2021/11/08 01:29:46;;;;;;;27.25;7.93;;;5.40;99.90;;;;;;5043743;28;20105;-90
2021/11/08 01:32:38;;;;;;;19.70;7.85;;;5.30;99.90;;;;;;5069199;28;20120;-89
2021/11/08 01:35:31;;;;;;;31.83;8.67;;;5.20;99.90;;;;;;5066784;28;20087;-90
2021/11/08 01:41:13;;;;;;;20.17;7.88;;;4.90;99.90;;;;;;5072765;28;20098;-88
2021/11/08 01:44:01;;;;;;;18.73;8.07;;;4.80;99.90;;;;;;5069747;28;20045;-90
2021/11/08 01:46:48;;;;;;;22.98;8.20;;;4.80;99.90;;;;;;5069497;28;20075;-88
2021/11/08 01:49:41;;;;;;;24.85;8.65;;;4.70;99.90;;;;;;5066002;28;20134;-90
2021/11/08 01:52:29;;;;;;;23.70;8.68;;;4.50;99.90;;;;;;5064882;28;20104;-90
2021/11/08 01:55:19;;;;;;;22.27;9.07;;;4.30;99.90;;;;;;5081279;28;20071;-88
2021/11/08 01:58:09;;;;;;;31.92;9.52;;;4.30;99.90;;;;;;5068326;28;20110;-88
2021/11/08 02:00:58;;;;;;;22.48;9.48;;;4.10;99.90;;;;;;5065893;28;20075;-89
2021/11/08 02:03:48;;;;;;;30.02;9.73;;;3.90;99.90;;;;;;5051386;28;20130;-90
2021/11/08 02:06:35;;;;;;;32.00;9.77;;;3.80;99.90;;;;;;5068430;28;20067;-90
2021/11/08 02:09:23;;;;;;;26.00;10.30;;;3.80;99.90;;;;;;5065582;28;20108;-90
2021/11/08 02:12:11;;;;;;;28.75;11.40;;;3.80;99.90;;;;;;5064001;28;20084;-89
2021/11/08 02:15:05;;;;;;;28.50;12.07;;;3.70;99.90;;;;;;5065895;28;20503;-89
2021/11/08 02:17:52;;;;;;;32.88;13.05;;;3.80;99.90;;;;;;5053802;28;20073;-89
2021/11/08 02:20:45;;;;;;;29.42;12.30;;;3.70;99.90;;;;;;5056817;28;20150;-90
2021/11/08 02:23:36;;;;;;;29.48;12.63;;;3.60;99.90;;;;;;5063154;28;20052;-89
2021/11/08 02:26:24;;;;;;;32.50;13.85;;;3.60;99.90;;;;;;5080487;28;20044;-90
2021/11/08 02:29:14;;;;;;;34.55;12.27;;;3.60;99.90;;;;;;5067035;28;20109;-89
2021/11/08 02:32:04;;;;;;;31.60;12.95;;;3.50;99.90;;;;;;5034183;28;20386;-89
2021/11/08 02:34:51;;;;;;;32.65;13.30;;;3.40;99.90;;;;;;5077350;28;20126;-89
2021/11/08 02:37:39;;;;;;;39.35;14.45;;;3.30;99.90;;;;;;5060427;28;20347;-89
2021/11/08 02:40:29;;;;;;;35.90;13.93;;;3.20;99.90;;;;;;5066287;28;20075;-89
2021/11/08 02:43:21;;;;;;;32.00;13.85;;;3.20;99.90;;;;;;5058432;28;20049;-89
2021/11/08 02:46:14;;;;;;;24.33;13.15;;;3.20;99.90;;;;;;5048145;28;20050;-89
2021/11/08 02:49:05;;;;;;;45.33;14.07;;;3.20;99.90;;;;;;5055731;28;20049;-88
2021/11/08 02:52:03;;;;;;;37.40;16.27;;;3.10;99.90;;;;;;5079023;28;20045;-88
2021/11/08 02:54:52;;;;;;;35.88;15.30;;;3.10;99.90;;;;;;5061329;28;20041;-89
2021/11/08 02:57:41;;;;;;;34.80;15.10;;;3.10;99.90;;;;;;5067349;28;20497;-89
2021/11/08 03:00:32;;;;;;;30.65;14.30;;;3.00;99.90;;;;;;5068121;28;20056;-89
2021/11/08 03:03:29;;;;;;;31.85;14.90;;;3.00;99.90;;;;;;5067696;28;20072;-89
2021/11/08 03:06:27;;;;;;;31.27;14.52;;;2.90;99.90;;;;;;5063615;28;20116;-89
2021/11/08 03:09:22;;;;;;;39.05;14.32;;;2.90;99.90;;;;;;5066163;28;20080;-90
2021/11/08 03:12:12;;;;;;;29.20;13.48;;;2.90;99.90;;;;;;5062683;28;20051;-90
2021/11/08 03:17:49;;;;;;;32.25;13.60;;;2.60;99.90;;;;;;5054818;28;20229;-89
2021/11/08 03:20:38;;;;;;;34.58;13.52;;;2.50;99.90;;;;;;5058840;28;20105;-91
2021/11/08 03:23:27;;;;;;;36.20;13.18;;;2.50;99.90;;;;;;5071140;28;20073;-91
2021/11/08 03:29:28;;;;;;;28.85;13.00;;;2.20;99.90;;;;;;5060425;28;20091;-89
2021/11/08 03:32:36;;;;;;;32.25;13.40;;;2.00;99.90;;;;;;5017668;28;20111;-89
2021/11/08 03:35:26;;;;;;;35.10;14.10;;;1.90;99.90;;;;;;4996047;28;20093;-89
2021/11/08 03:38:18;;;;;;;31.58;13.75;;;1.90;99.90;;;;;;4997515;28;20200;-88
2021/11/08 03:41:06;;;;;;;20.05;10.88;;;1.80;99.90;;;;;;5018017;28;20081;-90
2021/11/08 03:43:57;;;;;;;38.20;14.45;;;1.80;99.90;;;;;;5007133;28;20108;-90
2021/11/08 03:46:47;;;;;;;38.25;14.90;;;1.70;99.90;;;;;;5020311;28;20050;-89
2021/11/08 03:49:34;;;;;;;37.03;14.43;;;1.70;99.90;;;;;;5005081;28;20042;-90
2021/11/08 03:52:24;;;;;;;35.85;13.90;;;1.70;99.90;;;;;;4994259;28;20152;-89
2021/11/08 03:55:12;;;;;;;48.30;16.05;;;1.60;99.90;;;;;;5007232;28;20037;-89
2021/11/08 03:58:03;;;;;;;38.30;16.52;;;1.80;99.90;;;;;;5017343;28;20110;-90
2021/11/08 04:00:51;;;;;;;45.25;16.80;;;2.00;99.90;;;;;;5016629;28;20058;-90
2021/11/08 04:03:39;;;;;;;38.05;17.33;;;2.10;99.90;;;;;;5033007;28;20113;-89
2021/11/08 04:06:26;;;;;;;41.03;16.33;;;2.10;99.90;;;;;;5054567;28;20120;-90
2021/11/08 04:09:17;;;;;;;48.95;18.33;;;2.00;99.90;;;;;;5053124;28;20045;-89
2021/11/08 04:12:08;;;;;;;58.65;17.83;;;1.90;99.90;;;;;;5046511;28;20049;-90
2021/11/08 04:14:56;;;;;;;43.17;16.90;;;1.80;99.90;;;;;;5048985;28;20118;-89
2021/11/08 04:17:48;;;;;;;36.20;16.65;;;1.80;99.90;;;;;;5047552;28;20041;-88
2021/11/08 04:20:36;;;;;;;48.13;16.48;;;1.80;99.90;;;;;;5052402;28;20119;-90
2021/11/08 04:23:25;;;;;;;44.13;16.52;;;1.70;99.90;;;;;;5046470;28;20081;-89
2021/11/08 04:26:17;;;;;;;50.47;15.45;;;1.60;99.90;;;;;;5046404;28;20091;-90
2021/11/08 04:29:05;;;;;;;;;;;1.60;99.90;;;;;;5063568;28;20080;-90
2021/11/08 04:31:54;;;;;;;41.03;15.40;;;1.60;99.90;;;;;;5062204;28;19971;-89
2021/11/08 04:34:52;;;;;;;42.70;17.17;;;1.60;99.90;;;;;;5078515;28;20137;-89
2021/11/08 04:37:54;;;;;;;39.08;14.85;;;1.50;99.90;;;;;;5077216;28;20048;-90
2021/11/08 04:49:30;;;;;;;39.85;15.32;;;1.40;99.90;;;;;;5066260;28;20041;-90
2021/11/08 04:58:46;;;;;;;52.58;20.27;;;1.30;99.90;;;;;;5046805;28;20046;-89
2021/11/08 06:51:50;;;;;;;44.50;20.48;;;0.70;99.90;;;;;;4929116;29;20108;-88
2021/11/08 06:55:05;;;;;;;45.22;21.02;;;0.80;99.90;;;;;;4884928;29;20049;-87
2021/11/08 06:58:14;;;;;;;;;;;;;;;;;;;;;
2021/11/08 07:01:01;;;;;;;53.22;22.88;;;0.90;99.90;;;;;;4869124;29;20061;-86
2021/11/08 07:04:01;;;;;;;55.85;21.75;;;1.00;99.90;;;;;;4868101;29;20045;-86
2021/11/08 07:07:03;;;;;;;;;;;;;;;;;;;;;
2021/11/08 07:10:12;;;;;;;;;;;;;;;;;;;;;
2021/11/08 07:13:22;;;;;;;83.07;35.40;;;1.50;99.90;;;;;;4965794;28;20114;-87
2021/11/08 07:16:16;;;;;;;64.60;29.45;;;1.90;99.90;;;;;;4944680;28;20066;-89
2021/11/08 07:19:12;;;;;;;50.35;25.67;;;2.40;99.90;;;;;;4955698;28;20066;-88
2021/11/08 07:22:06;;;;;;;54.63;22.58;;;2.70;99.90;;;;;;4942919;29;20467;-87
2021/11/08 07:25:25;;;;;;;;;;;;;;;;;;;;;
2021/11/08 07:28:46;;;;;;;;;;;;;;;;;;;;;
2021/11/08 07:53:27;;;;;;;;;;;;;;;;;;;;;
2021/11/08 07:57:12;;;;;;;;;;;;;;;;;;;;;
2021/11/08 08:00:23;;;;;;;38.75;18.35;;;3.60;99.90;;;;;;4976426;28;20074;-87
2021/11/08 08:03:45;;;;;;;40.45;19.38;;;3.70;99.90;;;;;;4985279;28;20078;-88
2021/11/08 08:06:50;;;;;;;36.53;19.70;;;4.00;99.90;;;;;;4984078;28;20129;-88
2021/11/08 08:17:33;;;;;;;38.42;17.35;;;4.60;99.90;;;;;;4895641;29;20386;-90
2021/11/08 08:21:41;;;;;;;36.42;16.80;;;5.20;99.90;;;;;;4833470;29;20115;-90
2021/11/08 08:24:56;;;;;;;34.00;15.45;;;6.30;99.90;;;;;;4812703;29;20135;-88
2021/11/08 08:28:41;;;;;;;;;;;;;;;;;;;;;
2021/11/08 08:32:29;;;;;;;25.45;12.50;;;6.20;99.90;;;;;;4798841;29;20055;-87
2021/11/08 08:35:19;;;;;;;27.65;11.15;;;6.50;99.90;;;;;;4804694;29;20069;-88
2021/11/08 08:38:14;;;;;;;27.38;8.85;;;7.00;99.90;;;;;;4885367;29;20138;-87
2021/11/08 08:41:30;;;;;;;20.73;7.57;;;7.30;99.90;;;;;;4912632;29;20051;-87
2021/11/08 08:44:48;;;;;;;25.40;6.95;;;7.50;99.90;;;;;;4831261;29;20227;-89
2021/11/08 08:53:29;;;;;;;;;;;;;;;;;;;;;
2021/11/08 08:56:33;;;;;;;16.23;4.00;;;8.50;99.90;;;;;;4721772;30;20061;-89
2021/11/08 08:59:38;;;;;;;;;;;;;;;;;;;;;
2021/11/08 09:53:38;;;;;;;11.10;3.15;;;18.80;59.20;;;;;;4894528;29;20585;-88
2021/11/08 10:08:52;;;;;;;13.90;3.60;;;17.50;60.00;;;;;;4921327;29;20119;-89
2021/11/08 10:12:17;;;;;;;13.80;3.33;;;18.10;60.50;;;;;;4892829;29;20470;-88
2021/11/08 10:23:38;;;;;;;13.15;3.78;;;19.30;54.40;;;;;;4806522;29;20039;-89
2021/11/08 10:35:20;;;;;;;14.70;4.18;;;14.10;70.60;;;;;;4770317;30;20051;-90
2021/11/08 10:38:36;;;;;;;16.70;4.97;;;12.80;75.40;;;;;;4782712;30;20194;-87
2021/11/08 10:41:46;;;;;;;16.55;4.25;;;11.70;80.90;;;;;;4737873;30;20059;-90
2021/11/08 10:45:10;;;;;;;;;;;;;;;;;;;;;
2021/11/08 10:49:17;;;;;;;18.38;4.55;;;10.30;91.50;;;;;;4834807;29;20107;-88
2021/11/08 10:53:39;;;;;;;;;;;;;;;;;;;;;
2021/11/08 10:57:18;;;;;;;20.10;4.63;;;10.20;98.70;;;;;;4784951;30;20487;-88
2021/11/08 11:12:29;;;;;;;20.10;5.00;;;11.10;99.90;;;;;;4786108;29;20065;-87
2021/11/08 11:15:23;;;;;;;13.27;3.73;;;13.50;96.50;;;;;;4787926;29;20055;-85
2021/11/08 11:18:13;;;;;;;21.08;4.38;;;15.90;84.50;;;;;;4809670;29;20326;-88
2021/11/08 11:22:05;;;;;;;15.55;4.75;;;18.20;67.80;;;;;;4828057;29;20103;-88
2021/11/08 11:25:14;;;;;;;17.25;4.20;;;19.40;61.50;;;;;;4882030;29;20063;-89
2021/11/08 11:28:46;;;;;;;14.43;4.05;;;19.60;57.50;;;;;;4898358;29;20064;-87
2021/11/08 11:32:45;;;;;;;16.15;4.78;;;17.40;60.10;;;;;;4894196;29;20052;-88
2021/11/08 11:36:33;;;;;;;13.93;4.53;;;16.00;67.00;;;;;;4827242;29;20102;-89
2021/11/08 11:40:06;;;;;;;16.08;4.43;;;16.10;64.50;;;;;;4834805;29;20125;-89
2021/11/08 11:47:19;;;;;;;13.05;3.47;;;18.10;57.70;;;;;;4823825;29;20082;-89
2021/11/08 11:58:29;;;;;;;12.68;3.97;;;17.80;58.90;;;;;;4828496;29;20109;-88
2021/11/08 12:01:46;;;;;;;;;;;;;;;;;;;;;
2021/11/08 12:04:51;;;;;;;13.20;3.92;;;17.60;59.60;;;;;;4906466;29;20127;-88
2021/11/08 12:09:10;;;;;;;15.02;3.92;;;18.80;55.60;;;;;;4906279;29;20063;-89
2021/11/08 12:16:29;;;;;;;12.50;3.22;;;21.00;51.90;;;;;;4899080;29;20057;-89
2021/11/08 12:20:05;;;;;;;11.93;3.03;;;20.80;50.60;;;;;;4887706;29;20116;-89
2021/11/08 12:27:56;;;;;;;10.98;3.38;;;20.40;49.90;;;;;;4809575;29;20122;-87
2021/11/08 12:30:56;;;;;;;12.68;3.97;;;17.70;54.10;;;;;;4878860;29;20049;-89
2021/11/08 12:34:50;;;;;;;;;;;;;;;;;;;;;
2021/11/08 12:38:24;;;;;;;15.02;3.72;;;14.20;65.90;;;;;;4842303;29;20379;-88
2021/11/08 12:42:14;;;;;;;;;;;;;;;;;;;;;
2021/11/08 12:45:41;;;;;;;12.25;3.85;;;16.20;62.50;;;;;;4861476;29;20057;-88
2021/11/08 12:52:55;;;;;;;13.90;3.72;;;19.20;53.10;;;;;;4850276;29;20041;-89
2021/11/08 12:57:34;;;;;;;14.75;3.67;;;18.60;53.90;;;;;;4859853;29;20129;-88
2021/11/08 13:00:54;;;;;;;18.60;4.53;;;17.00;54.80;;;;;;4793085;29;20059;-87
2021/11/08 13:04:11;;;;;;;14.40;3.92;;;14.80;60.20;;;;;;4835640;29;20058;-88
2021/11/08 13:07:50;;;;;;;;;;;;;;;;;;;;;
2021/11/08 13:11:09;;;;;;;17.42;4.32;;;12.10;69.50;;;;;;4860071;29;20048;-90
2021/11/08 13:14:05;;;;;;;14.20;3.20;;;11.10;74.10;;;;;;4861983;29;20069;-90
2021/11/08 13:26:48;;;;;;;;;;;;;;;;;;;;;
2021/11/08 14:33:18;;;;;;;9.02;2.50;;;16.00;54.30;;;;;;4943359;23;20059;-90
2021/11/08 16:12:54;;;;;;;15.30;4.20;;;5.00;99.90;;;;;;4954813;28;20628;-89
2021/11/08 16:20:59;;;;;;;22.90;5.30;;;4.60;99.90;;;;;;4847012;29;20857;-89
2021/11/08 16:24:14;;;;;;;18.40;5.25;;;4.50;99.90;;;;;;4953650;28;20039;-88
2021/11/08 16:31:29;;;;;;;;;;;;;;;;;;;;;
2021/11/08 16:35:09;;;;;;;79.32;37.88;;;4.20;99.90;;;;;;4835269;29;20199;-89
2021/11/08 16:43:08;;;;;;;;;;;;;;;;;;;;;
2021/11/08 16:52:21;;;;;;;;;;;;;;;;;;;;;
2021/11/08 17:18:28;;;;;;;;;;;;;;;;;;;;;
2021/11/08 17:22:52;;;;;;;;;;;;;;;;;;;;;
2021/11/08 17:36:12;;;;;;;33.63;11.30;;;2.90;99.90;;;;;;5115787;27;20488;-89
2021/11/08 17:39:05;;;;;;;27.90;11.15;;;2.70;99.90;;;;;;5096318;28;20322;-88
2021/11/08 17:41:57;;;;;;;29.73;11.15;;;2.60;99.90;;;;;;5103123;28;20040;-88
2021/11/08 17:44:48;;;;;;;32.63;12.82;;;2.60;99.90;;;;;;5128702;27;20408;-90
2021/11/08 17:47:38;;;;;;;43.55;12.90;;;2.60;99.90;;;;;;5108723;28;20056;-90
2021/11/08 17:50:28;;;;;;;34.65;12.55;;;2.60;99.90;;;;;;5126561;28;20069;-90
2021/11/08 17:53:18;;;;;;;29.17;14.30;;;2.60;99.90;;;;;;5124800;28;20056;-87
2021/11/08 17:56:08;;;;;;;34.15;13.68;;;2.60;99.90;;;;;;5095203;28;20138;-88
2021/11/08 17:59:00;;;;;;;;;;;2.60;99.90;;;;;;5118571;28;20161;-89
2021/11/08 18:01:53;;;;;;;34.22;13.38;;;2.60;99.90;;;;;;5105008;28;19924;-88
2021/11/08 18:04:41;;;;;;;29.15;13.18;;;2.70;99.90;;;;;;5098093;28;20052;-88
2021/11/08 18:07:32;;;;;;;27.60;12.27;;;2.60;99.90;;;;;;5076127;28;20064;-87
2021/11/08 18:10:25;;;;;;;40.05;14.27;;;2.70;99.90;;;;;;5071239;28;20101;-88
2021/11/08 18:13:14;;;;;;;35.08;14.07;;;2.60;99.90;;;;;;5046603;28;20061;-87
2021/11/08 18:16:04;;;;;;;30.23;13.13;;;2.60;99.90;;;;;;5039698;28;20045;-88
2021/11/08 18:18:53;;;;;;;32.53;13.95;;;2.50;99.90;;;;;;5059969;28;20037;-87
2021/11/08 18:24:41;;;;;;;35.92;14.55;;;2.60;99.90;;;;;;5062519;28;20060;-88
2021/11/08 18:27:33;;;;;;;29.30;13.00;;;2.50;99.90;;;;;;5064936;28;20079;-88
2021/11/08 18:30:21;;;;;;;41.20;15.30;;;2.60;99.90;;;;;;5065796;28;20111;-87
2021/11/08 18:33:10;;;;;;;41.80;16.08;;;2.60;99.90;;;;;;5051619;28;20052;-87
2021/11/08 18:36:02;;;;;;;44.13;18.40;;;2.70;99.90;;;;;;5060951;28;20049;-88
2021/11/08 18:38:52;;;;;;;52.67;24.80;;;2.70;99.90;;;;;;5065358;28;20072;-89
2021/11/08 18:41:43;;;;;;;56.97;28.63;;;2.80;99.90;;;;;;5078604;28;20040;-89
2021/11/08 18:44:30;;;;;;;56.88;27.30;;;2.80;99.90;;;;;;5086142;28;20045;-89
2021/11/08 18:47:25;;;;;;;73.93;27.75;;;2.80;99.90;;;;;;5071420;28;20049;-89
2021/11/08 18:50:14;;;;;;;55.08;26.02;;;2.80;99.90;;;;;;5072099;28;20044;-89
2021/11/08 18:53:03;;;;;;;54.63;26.27;;;2.80;99.90;;;;;;5083574;28;20085;-89
2021/11/08 18:55:57;;;;;;;53.22;24.48;;;2.70;99.90;;;;;;5091920;28;20036;-90
2021/11/08 18:58:44;;;;;;;57.92;25.48;;;2.60;99.90;;;;;;5066861;28;20059;-88
2021/11/08 19:01:47;;;;;;;49.22;23.95;;;2.60;99.90;;;;;;5072162;28;20043;-85
2021/11/08 19:04:42;;;;;;;47.35;22.33;;;2.50;99.90;;;;;;5095494;28;20108;-84
2021/11/08 19:07:54;;;;;;;37.47;20.90;;;2.40;99.90;;;;;;5104342;28;20062;-87
2021/11/08 19:10:43;;;;;;;44.03;20.67;;;2.30;99.90;;;;;;5080784;28;20093;-87
2021/11/08 19:13:30;;;;;;;44.80;19.42;;;2.10;99.90;;;;;;5095456;28;20040;-88
2021/11/08 19:16:19;;;;;;;44.30;19.98;;;2.10;99.90;;;;;;5083064;28;20039;-89
2021/11/08 19:19:15;;;;;;;42.58;19.77;;;2.00;99.90;;;;;;5101764;28;20107;-89
2021/11/08 19:22:13;;;;;;;52.63;19.52;;;2.00;99.90;;;;;;5110023;28;20108;-89
2021/11/08 19:25:03;;;;;;;43.15;19.02;;;1.90;99.90;;;;;;5091538;28;20074;-89
2021/11/08 19:27:50;;;;;;;52.95;23.95;;;1.90;99.90;;;;;;5099466;28;20051;-89
2021/11/08 19:30:43;;;;;;;70.75;28.65;;;1.90;99.90;;;;;;5107825;28;20040;-89
2021/11/08 19:40:26;;;;;;;62.22;26.20;;;1.80;99.90;;;;;;5073362;28;20052;-90
2021/11/08 19:43:21;;;;;;;45.55;23.05;;;1.60;99.90;;;;;;5072850;28;20131;-89
2021/11/08 19:46:08;;;;;;;55.28;25.08;;;1.50;99.90;;;;;;5073025;28;20052;-89
2021/11/08 19:48:58;;;;;;;52.45;21.67;;;1.50;99.90;;;;;;5058115;28;20044;-90
2021/11/08 19:51:47;;;;;;;52.67;24.88;;;1.40;99.90;;;;;;5056962;28;20044;-88
2021/11/08 19:54:39;;;;;;;;;;;1.50;99.90;;;;;;5076124;28;20071;-89
2021/11/08 19:57:27;;;;;;;59.10;24.58;;;1.50;99.90;;;;;;5051712;28;19947;-89
2021/11/08 20:00:30;;;;;;;;;;;;;;;;;;;;;
2021/11/08 20:03:26;;;;;;;57.40;25.23;;;1.50;99.90;;;;;;5072766;28;20053;-90
2021/11/08 20:06:13;;;;;;;55.63;23.17;;;1.50;99.90;;;;;;5073474;28;20052;-90
2021/11/08 20:09:17;;;;;;;57.92;25.63;;;1.40;99.90;;;;;;5062471;28;20132;-90
2021/11/08 20:12:08;;;;;;;53.58;23.30;;;1.40;99.90;;;;;;5068859;28;20115;-90
2021/11/08 20:15:01;;;;;;;58.17;25.33;;;1.40;99.90;;;;;;5073849;28;20105;-90
2021/11/08 20:17:52;;;;;;;60.03;24.55;;;1.40;99.90;;;;;;5058835;28;20041;-89
2021/11/08 20:20:46;;;;;;;46.53;23.63;;;1.40;99.90;;;;;;5060318;28;20102;-89
2021/11/08 20:23:36;;;;;;;55.15;23.10;;;1.40;99.90;;;;;;5072874;28;20135;-91
2021/11/08 20:26:39;;;;;;;58.85;23.30;;;1.30;99.90;;;;;;5068624;28;20052;-90
2021/11/08 20:29:37;;;;;;;93.57;45.50;;;1.30;99.90;;;;;;5088624;28;20406;-90
2021/11/08 20:32:32;;;;;;;92.05;43.75;;;1.40;99.90;;;;;;5059268;28;20385;-90
2021/11/08 20:38:30;;;;;;;73.97;37.38;;;1.20;99.90;;;;;;5075690;28;20041;-88
2021/11/08 20:41:42;;;;;;;72.75;34.83;;;1.20;99.90;;;;;;5057938;28;20059;-90
2021/11/08 20:59:38;;;;;;;58.10;25.50;;;0.90;99.90;;;;;;5070572;28;20075;-90
2021/11/08 21:05:39;;;;;;;58.08;25.35;;;0.80;99.90;;;;;;5067067;28;20072;-89
2021/11/08 21:09:00;;;;;;;69.35;24.30;;;0.80;99.90;;;;;;5061825;28;20040;-89
2021/11/08 21:15:07;;;;;;;53.88;24.48;;;0.70;99.90;;;;;;5078249;28;20124;-89
2021/11/08 21:17:54;;;;;;;58.65;28.38;;;0.70;99.90;;;;;;5070029;28;20041;-89
2021/11/08 21:20:45;;;;;;;68.93;28.77;;;0.80;99.90;;;;;;5087998;28;20049;-90
2021/11/08 21:23:35;;;;;;;64.90;25.42;;;0.80;99.90;;;;;;5076389;28;20048;-90
2021/11/08 21:26:27;;;;;;;57.78;23.60;;;0.60;99.90;;;;;;5084132;28;20058;-89
2021/11/08 21:29:43;;;;;;;61.20;23.55;;;0.60;99.90;;;;;;5083699;28;20108;-89
2021/11/08 21:38:58;;;;;;;84.72;36.83;;;0.60;99.90;;;;;;5095250;28;20050;-90
2021/11/08 21:41:56;;;;;;;82.18;36.33;;;0.60;99.90;;;;;;5076240;28;20085;-90
2021/11/08 21:44:46;;;;;;;77.57;36.55;;;0.60;99.90;;;;;;5081318;28;20048;-91
2021/11/08 21:47:36;;;;;;;84.28;38.72;;;0.60;99.90;;;;;;5101875;28;20070;-91
2021/11/08 21:50:25;;;;;;;79.35;39.75;;;0.50;99.90;;;;;;5096716;28;20437;-90
2021/11/08 21:53:16;;;;;;;79.25;39.40;;;0.40;99.90;;;;;;5099977;28;20117;-90
2021/11/08 21:56:08;;;;;;;74.88;34.55;;;0.40;99.90;;;;;;5094423;28;20055;-91
2021/11/08 21:58:58;;;;;;;71.85;34.08;;;0.40;99.90;;;;;;5081512;28;20456;-90
2021/11/08 22:01:45;;;;;;;75.00;32.22;;;0.30;99.90;;;;;;5088691;28;20035;-90
2021/11/08 22:04:37;;;;;;;76.13;34.03;;;0.20;99.90;;;;;;5091868;28;20187;-90
2021/11/08 22:07:24;;;;;;;70.82;32.70;;;0.20;99.90;;;;;;5097763;28;20101;-90
2021/11/08 22:10:12;;;;;;;75.32;32.88;;;0.20;99.90;;;;;;5061026;28;20144;-90
2021/11/08 22:13:58;;;;;;;87.47;39.65;;;0.20;99.90;;;;;;5064632;28;20071;-89
2021/11/08 22:25:35;;;;;;;83.18;34.78;;;0.20;99.90;;;;;;5029944;28;20042;-88
2021/11/08 22:28:37;;;;;;;84.18;33.03;;;0.10;99.90;;;;;;5020407;28;20048;-90
2021/11/08 22:31:54;;;;;;;71.47;33.47;;;0.00;99.90;;;;;;5008057;28;20463;-90
2021/11/08 22:35:24;;;;;;;75.05;33.70;;;-0.10;99.90;;;;;;5023595;28;20049;-89
2021/11/08 22:38:41;;;;;;;74.25;32.72;;;0.00;99.90;;;;;;5044815;28;20071;-89
2021/11/08 22:41:50;;;;;;;72.82;28.85;;;0.00;99.90;;;;;;5094428;28;20356;-89
2021/11/08 22:44:48;;;;;;;63.08;26.98;;;0.00;99.90;;;;;;5079242;28;20043;-90
2021/11/08 22:47:43;;;;;;;68.55;26.20;;;0.00;99.90;;;;;;5102174;28;20036;-89
2021/11/08 22:51:00;;;;;;;65.80;24.73;;;0.00;99.90;;;;;;5112551;28;20082;-90
2021/11/08 22:54:33;;;;;;;64.10;25.90;;;-0.10;99.90;;;;;;5101167;28;20047;-90
2021/11/08 22:57:40;;;;;;;63.47;25.27;;;-0.10;99.90;;;;;;5082857;28;20047;-89
2021/11/08 23:00:32;;;;;;;68.80;25.40;;;-0.10;99.90;;;;;;5108857;28;20119;-90
2021/11/08 23:03:26;;;;;;;61.03;26.42;;;-0.10;99.90;;;;;;5095882;28;20111;-89
2021/11/08 23:06:34;;;;;;;78.68;27.77;;;-0.10;99.90;;;;;;5087151;28;20113;-90
2021/11/08 23:09:32;;;;;;;65.18;27.85;;;-0.10;99.90;;;;;;5089227;28;20141;-90
2021/11/08 23:15:27;;;;;;;73.13;32.80;;;-0.20;99.90;;;;;;4238881;23;20117;-88
2021/11/08 23:18:24;;;;;;;64.40;29.98;;;-0.10;99.90;;;;;;4987864;28;20138;-89
2021/11/08 23:27:16;;;;;;;74.32;29.88;;;-0.20;99.90;;;;;;5016013;28;20089;-88
2021/11/08 23:30:08;;;;;;;70.65;30.83;;;-0.30;99.90;;;;;;4977018;28;20079;-87
2021/11/08 23:33:02;;;;;;;73.63;29.42;;;-0.40;99.90;;;;;;4997396;28;20067;-88
2021/11/08 23:35:59;;;;;;;71.80;28.42;;;-0.30;99.90;;;;;;4963782;28;20087;-89
2021/11/08 23:38:58;;;;;;;66.97;28.20;;;-0.40;99.90;;;;;;4969545;28;20035;-88
2021/11/08 23:42:24;;;;;;;70.25;29.27;;;-0.30;99.90;;;;;;4966744;28;20055;-88
2021/11/08 23:45:24;;;;;;;;;;;;;;;;;;;;;
2021/11/08 23:48:22;;;;;;;;;;;;;;;;;;;;;
2021/11/08 23:51:11;;;;;;;61.33;27.98;;;-0.40;99.90;;;;;;4993879;28;20049;-88
2021/11/08 23:54:03;;;;;;;77.80;27.90;;;-0.40;99.90;;;;;;4975404;28;20061;-91
2021/11/08 23:56:54;;;;;;;67.30;27.75;;;-0.40;99.90;;;;;;4984714;28;20070;-89
2021/11/08 23:59:55;;;;;;;76.72;28.38;;;-0.40;99.90;;;;;;4970884;28;20047;-89
